createdAt,value
2018-04-23T00:00:06.081Z,951.66
2018-04-23T00:01:06.078Z,951.67
2018-04-23T00:02:06.077Z,951.66
2018-04-23T00:03:06.071Z,951.63
2018-04-23T00:04:06.067Z,951.62
2018-04-23T00:05:06.062Z,951.6
2018-04-23T00:06:06.060Z,951.61
2018-04-23T00:07:06.057Z,951.56
2018-04-23T00:08:06.069Z,951.59
2018-04-23T00:09:06.049Z,951.6
2018-04-23T00:10:06.066Z,951.59
2018-04-23T00:11:06.041Z,951.57
2018-04-23T00:12:06.043Z,951.52
2018-04-23T00:13:06.035Z,951.56
2018-04-23T00:14:06.031Z,951.56
2018-04-23T00:15:06.027Z,951.57
2018-04-23T00:16:06.022Z,951.52
2018-04-23T00:17:06.018Z,951.51
2018-04-23T00:18:06.016Z,951.46
2018-04-23T00:19:06.012Z,951.44
2018-04-23T00:20:06.009Z,951.46
2018-04-23T00:21:06.006Z,951.42
2018-04-23T00:22:06.000Z,951.41
2018-04-23T00:23:06.031Z,951.39
2018-04-23T00:24:05.993Z,951.33
2018-04-23T00:25:05.990Z,951.31
2018-04-23T00:26:05.986Z,951.35
2018-04-23T00:27:05.982Z,951.3
2018-04-23T00:28:05.978Z,951.3
2018-04-23T00:29:05.973Z,951.33
2018-04-23T00:30:06.192Z,951.32
2018-04-23T00:31:05.966Z,951.31
2018-04-23T00:32:05.963Z,951.26
2018-04-23T00:33:05.959Z,951.34
2018-04-23T00:34:05.955Z,951.31
2018-04-23T00:35:05.950Z,951.27
2018-04-23T00:36:05.946Z,951.23
2018-04-23T00:37:05.942Z,951.27
2018-04-23T00:38:05.938Z,951.24
2018-04-23T00:39:05.934Z,951.24
2018-04-23T00:40:05.931Z,951.25
2018-04-23T00:41:05.925Z,951.25
2018-04-23T00:42:05.921Z,951.2
2018-04-23T00:43:05.917Z,951.19
2018-04-23T00:44:05.915Z,951.2
2018-04-23T00:45:05.910Z,951.15
2018-04-23T00:46:05.904Z,951.18
2018-04-23T00:47:05.901Z,951.15
2018-04-23T00:48:05.897Z,951.16
2018-04-23T00:49:05.891Z,951.19
2018-04-23T00:50:05.887Z,951.18
2018-04-23T00:51:05.885Z,951.2
2018-04-23T00:52:05.881Z,951.17
2018-04-23T00:53:05.877Z,951.16
2018-04-23T00:54:05.890Z,951.12
2018-04-23T00:55:05.867Z,951.16
2018-04-23T00:56:05.868Z,951.09
2018-04-23T00:57:05.876Z,951.09
2018-04-23T00:58:05.854Z,951.13
2018-04-23T00:59:05.850Z,951.12
2018-04-23T01:00:05.846Z,951.13
2018-04-23T01:01:05.845Z,951.12
2018-04-23T01:02:05.836Z,951.13
2018-04-23T01:03:05.833Z,951.12
2018-04-23T01:04:05.835Z,951.11
2018-04-23T01:05:05.826Z,951.14
2018-04-23T01:06:05.819Z,951.13
2018-04-23T01:07:05.815Z,951.13
2018-04-23T01:08:05.814Z,951.09
2018-04-23T01:09:05.822Z,951.12
2018-04-23T01:10:05.807Z,951.13
2018-04-23T01:11:05.799Z,951.15
2018-04-23T01:12:05.794Z,951.13
2018-04-23T01:13:05.789Z,951.18
2018-04-23T01:14:05.785Z,951.18
2018-04-23T01:15:05.780Z,951.14
2018-04-23T01:16:05.775Z,951.21
2018-04-23T01:17:05.771Z,951.21
2018-04-23T01:18:05.765Z,951.21
2018-04-23T01:19:05.762Z,951.21
2018-04-23T01:20:05.757Z,951.23
2018-04-23T01:21:05.753Z,951.23
2018-04-23T01:22:05.749Z,951.22
2018-04-23T01:23:05.744Z,951.23
2018-04-23T01:24:05.741Z,951.26
2018-04-23T01:25:05.735Z,951.24
2018-04-23T01:26:05.729Z,951.22
2018-04-23T01:27:05.725Z,951.23
2018-04-23T01:28:05.721Z,951.26
2018-04-23T01:29:05.716Z,951.2
2018-04-23T01:30:05.715Z,951.21
2018-04-23T01:31:05.709Z,951.19
2018-04-23T01:32:05.702Z,951.21
2018-04-23T01:33:05.698Z,951.2
2018-04-23T01:34:05.694Z,951.21
2018-04-23T01:35:05.690Z,951.19
2018-04-23T01:36:05.685Z,951.22
2018-04-23T01:37:05.680Z,951.22
2018-04-23T01:38:05.675Z,951.27
2018-04-23T01:39:05.671Z,951.28
2018-04-23T01:40:05.667Z,951.24
2018-04-23T01:41:05.662Z,951.31
2018-04-23T01:42:05.661Z,951.24
2018-04-23T01:43:05.653Z,951.25
2018-04-23T01:44:05.651Z,951.26
2018-04-23T01:45:05.644Z,951.25
2018-04-23T01:46:05.639Z,951.23
2018-04-23T01:47:05.634Z,951.29
2018-04-23T01:48:05.630Z,951.25
2018-04-23T01:49:05.625Z,951.22
2018-04-23T01:50:05.623Z,951.21
2018-04-23T01:51:05.616Z,951.21
2018-04-23T01:52:05.611Z,951.26
2018-04-23T01:53:05.611Z,951.28
2018-04-23T01:54:05.603Z,951.25
2018-04-23T01:55:05.602Z,951.24
2018-04-23T01:56:05.593Z,951.19
2018-04-23T01:57:05.588Z,951.27
2018-04-23T01:58:05.584Z,951.28
2018-04-23T01:59:05.577Z,951.28
2018-04-23T02:00:05.574Z,951.27
2018-04-23T02:01:05.568Z,951.26
2018-04-23T02:02:05.568Z,951.31
2018-04-23T02:03:05.560Z,951.25
2018-04-23T02:04:05.556Z,951.25
2018-04-23T02:05:05.550Z,951.28
2018-04-23T02:06:05.544Z,951.29
2018-04-23T02:07:05.540Z,951.32
2018-04-23T02:08:05.535Z,951.25
2018-04-23T02:09:05.530Z,951.3
2018-04-23T02:10:05.524Z,951.28
2018-04-23T02:11:05.520Z,951.29
2018-04-23T02:12:05.520Z,951.3
2018-04-23T02:13:05.510Z,951.29
2018-04-23T02:14:05.505Z,951.29
2018-04-23T02:15:05.501Z,951.31
2018-04-23T02:16:05.534Z,951.28
2018-04-23T02:17:05.490Z,951.28
2018-04-23T02:18:05.486Z,951.25
2018-04-23T02:19:05.480Z,951.32
2018-04-23T02:20:05.478Z,951.3
2018-04-23T02:21:05.471Z,951.26
2018-04-23T02:22:05.466Z,951.31
2018-04-23T02:23:05.460Z,951.33
2018-04-23T02:24:05.456Z,951.27
2018-04-23T02:25:05.451Z,951.3
2018-04-23T02:26:05.449Z,951.29
2018-04-23T02:27:05.444Z,951.35
2018-04-23T02:28:05.436Z,951.35
2018-04-23T02:29:05.431Z,951.32
2018-04-23T02:30:05.427Z,951.31
2018-04-23T02:31:05.421Z,951.33
2018-04-23T02:32:05.416Z,951.31
2018-04-23T02:33:05.412Z,951.35
2018-04-23T02:34:05.407Z,951.35
2018-04-23T02:35:05.401Z,951.35
2018-04-23T02:36:05.407Z,951.32
2018-04-23T02:37:05.392Z,951.39
2018-04-23T02:38:05.393Z,951.35
2018-04-23T02:39:05.388Z,951.37
2018-04-23T02:40:05.377Z,951.37
2018-04-23T02:41:05.373Z,951.37
2018-04-23T02:42:05.368Z,951.37
2018-04-23T02:43:05.363Z,951.38
2018-04-23T02:44:05.359Z,951.39
2018-04-23T02:45:05.353Z,951.41
2018-04-23T02:46:05.349Z,951.41
2018-04-23T02:47:05.343Z,951.38
2018-04-23T02:48:05.343Z,951.38
2018-04-23T02:49:05.335Z,951.35
2018-04-23T02:50:05.335Z,951.39
2018-04-23T02:51:05.327Z,951.35
2018-04-23T02:52:05.319Z,951.41
2018-04-23T02:53:05.315Z,951.37
2018-04-23T02:54:05.318Z,951.42
2018-04-23T02:55:05.307Z,951.38
2018-04-23T02:56:05.300Z,951.38
2018-04-23T02:57:05.321Z,951.4
2018-04-23T02:58:05.302Z,951.41
2018-04-23T02:59:05.285Z,951.41
2018-04-23T03:00:05.280Z,951.41
2018-04-23T03:01:05.277Z,951.37
2018-04-23T03:02:05.269Z,951.36
2018-04-23T03:03:05.265Z,951.38
2018-04-23T03:04:05.261Z,951.36
2018-04-23T03:05:05.265Z,951.33
2018-04-23T03:06:05.267Z,951.28
2018-04-23T03:07:05.246Z,951.35
2018-04-23T03:08:05.241Z,951.32
2018-04-23T03:09:05.234Z,951.31
2018-04-23T03:10:05.231Z,951.32
2018-04-23T03:11:05.226Z,951.34
2018-04-23T03:12:05.221Z,951.28
2018-04-23T03:13:05.222Z,951.32
2018-04-23T03:14:05.214Z,951.34
2018-04-23T03:15:05.205Z,951.36
2018-04-23T03:16:05.204Z,951.37
2018-04-23T03:17:05.211Z,951.32
2018-04-23T03:18:05.191Z,951.35
2018-04-23T03:19:05.185Z,951.34
2018-04-23T03:20:05.185Z,951.33
2018-04-23T03:21:05.181Z,951.38
2018-04-23T03:22:05.171Z,951.36
2018-04-23T03:23:05.165Z,951.35
2018-04-23T03:24:05.160Z,951.29
2018-04-23T03:25:05.156Z,951.32
2018-04-23T03:26:05.150Z,951.31
2018-04-23T03:27:05.144Z,951.35
2018-04-23T03:28:05.139Z,951.34
2018-04-23T03:29:05.134Z,951.36
2018-04-23T03:30:05.130Z,951.39
2018-04-23T03:31:05.138Z,951.32
2018-04-23T03:32:05.137Z,951.34
2018-04-23T03:33:05.114Z,951.38
2018-04-23T03:34:05.109Z,951.44
2018-04-23T03:35:05.104Z,951.39
2018-04-23T03:36:05.099Z,951.38
2018-04-23T03:37:05.117Z,951.38
2018-04-23T03:38:05.089Z,951.42
2018-04-23T03:39:05.085Z,951.44
2018-04-23T03:40:05.079Z,951.39
2018-04-23T03:41:05.091Z,951.4
2018-04-23T03:42:05.067Z,951.4
2018-04-23T03:43:05.062Z,951.46
2018-04-23T03:44:05.057Z,951.37
2018-04-23T03:45:05.052Z,951.38
2018-04-23T03:46:05.049Z,951.39
2018-04-23T03:47:05.041Z,951.36
2018-04-23T03:48:05.036Z,951.39
2018-04-23T03:49:05.032Z,951.35
2018-04-23T03:50:05.026Z,951.38
2018-04-23T03:51:05.022Z,951.37
2018-04-23T03:52:05.016Z,951.37
2018-04-23T03:53:05.013Z,951.41
2018-04-23T03:54:05.005Z,951.37
2018-04-23T03:55:05.000Z,951.37
2018-04-23T03:56:04.994Z,951.34
2018-04-23T03:57:04.988Z,951.38
2018-04-23T03:58:04.984Z,951.41
2018-04-23T03:59:04.978Z,951.35
2018-04-23T04:00:04.973Z,951.4
2018-04-23T04:01:04.968Z,951.44
2018-04-23T04:02:04.963Z,951.45
2018-04-23T04:03:04.961Z,951.4
2018-04-23T04:04:04.952Z,951.33
2018-04-23T04:05:04.947Z,951.35
2018-04-23T04:06:04.942Z,951.42
2018-04-23T04:07:04.935Z,951.41
2018-04-23T04:08:04.930Z,951.37
2018-04-23T04:09:04.927Z,951.4
2018-04-23T04:10:04.919Z,951.38
2018-04-23T04:11:04.917Z,951.35
2018-04-23T04:12:05.130Z,951.4
2018-04-23T04:13:04.904Z,951.41
2018-04-23T04:14:04.899Z,951.45
2018-04-23T04:15:04.893Z,951.45
2018-04-23T04:16:04.886Z,951.44
2018-04-23T04:17:04.883Z,951.43
2018-04-23T04:18:04.877Z,951.46
2018-04-23T04:19:04.874Z,951.49
2018-04-23T04:20:04.866Z,951.46
2018-04-23T04:21:04.861Z,951.49
2018-04-23T04:22:04.856Z,951.48
2018-04-23T04:23:04.851Z,951.51
2018-04-23T04:24:04.844Z,951.51
2018-04-23T04:25:04.839Z,951.53
2018-04-23T04:26:04.835Z,951.54
2018-04-23T04:27:04.829Z,951.52
2018-04-23T04:28:04.824Z,951.53
2018-04-23T04:29:04.820Z,951.58
2018-04-23T04:30:04.831Z,951.53
2018-04-23T04:31:04.820Z,951.51
2018-04-23T04:32:04.802Z,951.53
2018-04-23T04:33:04.797Z,951.51
2018-04-23T04:34:04.792Z,951.55
2018-04-23T04:35:04.787Z,951.56
2018-04-23T04:36:04.780Z,951.52
2018-04-23T04:37:04.775Z,951.55
2018-04-23T04:38:04.770Z,951.52
2018-04-23T04:39:04.764Z,951.49
2018-04-23T04:40:04.760Z,951.52
2018-04-23T04:41:04.755Z,951.58
2018-04-23T04:42:04.765Z,951.58
2018-04-23T04:43:04.744Z,951.57
2018-04-23T04:44:04.742Z,951.59
2018-04-23T04:45:04.737Z,951.59
2018-04-23T04:46:04.729Z,951.65
2018-04-23T04:47:04.722Z,951.66
2018-04-23T04:48:04.718Z,951.65
2018-04-23T04:49:04.713Z,951.63
2018-04-23T04:50:04.707Z,951.7
2018-04-23T04:51:04.702Z,951.62
2018-04-23T04:52:04.696Z,951.63
2018-04-23T04:53:04.692Z,951.64
2018-04-23T04:54:04.687Z,951.66
2018-04-23T04:55:04.682Z,951.67
2018-04-23T04:56:04.678Z,951.68
2018-04-23T04:57:04.692Z,951.7
2018-04-23T04:58:04.666Z,951.72
2018-04-23T04:59:04.697Z,951.67
2018-04-23T05:00:04.661Z,951.68
2018-04-23T05:01:04.652Z,951.69
2018-04-23T05:02:04.666Z,951.68
2018-04-23T05:03:04.641Z,951.77
2018-04-23T05:04:04.638Z,951.73
2018-04-23T05:05:04.632Z,951.73
2018-04-23T05:06:04.628Z,951.78
2018-04-23T05:07:04.622Z,951.75
2018-04-23T05:08:04.618Z,951.73
2018-04-23T05:09:04.612Z,951.74
2018-04-23T05:10:04.610Z,951.78
2018-04-23T05:11:04.604Z,951.73
2018-04-23T05:12:04.599Z,951.74
2018-04-23T05:13:04.593Z,951.77
2018-04-23T05:14:04.790Z,951.72
2018-04-23T05:15:04.607Z,951.77
2018-04-23T05:16:04.578Z,951.72
2018-04-23T05:17:04.617Z,951.71
2018-04-23T05:18:04.570Z,951.72
2018-04-23T05:19:04.568Z,951.76
2018-04-23T05:20:04.561Z,951.78
2018-04-23T05:21:04.557Z,951.8
2018-04-23T05:22:04.575Z,951.86
2018-04-23T05:23:04.571Z,951.82
2018-04-23T05:24:04.542Z,951.85
2018-04-23T05:25:04.566Z,951.82
2018-04-23T05:26:04.535Z,951.87
2018-04-23T05:27:04.529Z,951.85
2018-04-23T05:28:04.526Z,951.88
2018-04-23T05:29:04.521Z,951.87
2018-04-23T05:30:04.544Z,951.86
2018-04-23T05:31:04.512Z,951.86
2018-04-23T05:32:04.508Z,951.84
2018-04-23T05:33:04.504Z,951.85
2018-04-23T05:34:04.562Z,951.84
2018-04-23T05:35:04.497Z,951.85
2018-04-23T05:36:04.490Z,951.83
2018-04-23T05:37:04.517Z,951.89
2018-04-23T05:38:04.483Z,951.87
2018-04-23T05:39:04.478Z,951.89
2018-04-23T05:40:04.473Z,951.87
2018-04-23T05:41:04.511Z,951.89
2018-04-23T05:42:04.465Z,951.89
2018-04-23T05:43:04.484Z,951.88
2018-04-23T05:44:04.476Z,951.92
2018-04-23T05:45:04.454Z,951.91
2018-04-23T05:46:04.449Z,951.9
2018-04-23T05:47:04.463Z,951.94
2018-04-23T05:48:04.439Z,951.93
2018-04-23T05:49:04.436Z,951.9
2018-04-23T05:50:04.432Z,951.95
2018-04-23T05:51:04.428Z,951.93
2018-04-23T05:52:04.441Z,951.95
2018-04-23T05:53:04.420Z,951.9
2018-04-23T05:54:04.416Z,951.89
2018-04-23T05:55:04.471Z,951.95
2018-04-23T05:56:04.407Z,951.97
2018-04-23T05:57:04.404Z,951.99
2018-04-23T05:58:04.399Z,951.98
2018-04-23T05:59:04.396Z,951.96
2018-04-23T06:00:04.400Z,951.99
2018-04-23T06:01:04.389Z,951.99
2018-04-23T06:02:04.403Z,951.99
2018-04-23T06:03:04.437Z,952
2018-04-23T06:04:04.377Z,952.01
2018-04-23T06:05:04.373Z,951.97
2018-04-23T06:06:04.371Z,952.02
2018-04-23T06:07:04.381Z,951.94
2018-04-23T06:08:04.363Z,952
2018-04-23T06:09:04.358Z,951.98
2018-04-23T06:10:04.355Z,951.99
2018-04-23T06:11:04.351Z,951.96
2018-04-23T06:12:04.355Z,952.02
2018-04-23T06:13:04.346Z,951.94
2018-04-23T06:14:04.341Z,952
2018-04-23T06:15:04.339Z,952.03
2018-04-23T06:16:04.334Z,952.02
2018-04-23T06:17:04.335Z,952.04
2018-04-23T06:18:04.329Z,952.06
2018-04-23T06:19:04.326Z,952.04
2018-04-23T06:20:04.323Z,952.06
2018-04-23T06:21:04.320Z,952.05
2018-04-23T06:22:04.316Z,952.08
2018-04-23T06:23:04.312Z,952.09
2018-04-23T06:24:04.311Z,952.1
2018-04-23T06:25:04.308Z,952.11
2018-04-23T06:26:04.318Z,952.04
2018-04-23T06:27:04.301Z,952
2018-04-23T06:28:04.301Z,952.02
2018-04-23T06:29:04.298Z,952.05
2018-04-23T06:30:04.293Z,952.06
2018-04-23T06:31:04.327Z,952.03
2018-04-23T06:32:04.290Z,952.04
2018-04-23T06:33:04.284Z,952.02
2018-04-23T06:34:04.283Z,952.01
2018-04-23T06:35:04.280Z,952
2018-04-23T06:36:04.277Z,952
2018-04-23T06:37:04.274Z,951.99
2018-04-23T06:38:04.272Z,952.03
2018-04-23T06:39:04.270Z,952.05
2018-04-23T06:40:04.266Z,952.09
2018-04-23T06:41:04.264Z,952.05
2018-04-23T06:42:04.264Z,952.09
2018-04-23T06:43:04.261Z,952.07
2018-04-23T06:44:04.259Z,952.03
2018-04-23T06:45:04.254Z,952.09
2018-04-23T06:46:04.259Z,952.07
2018-04-23T06:47:04.253Z,952.09
2018-04-23T06:48:04.247Z,952.1
2018-04-23T06:49:04.246Z,952.1
2018-04-23T06:50:04.244Z,952.14
2018-04-23T06:51:04.240Z,952.11
2018-04-23T06:52:04.238Z,952.16
2018-04-23T06:53:04.236Z,952.14
2018-04-23T06:54:04.234Z,952.17
2018-04-23T06:55:04.232Z,952.17
2018-04-23T06:56:04.230Z,952.19
2018-04-23T06:57:04.449Z,952.19
2018-04-23T06:58:04.244Z,952.15
2018-04-23T06:59:04.247Z,952.21
2018-04-23T07:00:04.224Z,952.2
2018-04-23T07:01:04.223Z,952.25
2018-04-23T07:02:04.220Z,952.2
2018-04-23T07:03:04.219Z,952.2
2018-04-23T07:04:04.216Z,952.2
2018-04-23T07:05:04.247Z,952.23
2018-04-23T07:06:04.224Z,952.25
2018-04-23T07:07:04.215Z,952.25
2018-04-23T07:08:04.241Z,952.28
2018-04-23T07:09:04.211Z,952.43
2018-04-23T07:10:04.210Z,952.38
2018-04-23T07:11:04.213Z,952.49
2018-04-23T07:12:04.208Z,952.5
2018-04-23T07:13:04.210Z,952.46
2018-04-23T07:14:04.210Z,952.39
2018-04-23T07:15:04.231Z,952.41
2018-04-23T07:16:04.204Z,952.42
2018-04-23T07:17:04.204Z,952.44
2018-04-23T07:18:04.278Z,952.44
2018-04-23T07:19:04.204Z,952.4
2018-04-23T07:20:04.203Z,952.37
2018-04-23T07:21:04.203Z,952.4
2018-04-23T07:22:04.206Z,952.35
2018-04-23T07:23:04.203Z,952.4
2018-04-23T07:24:04.249Z,952.46
2018-04-23T07:25:04.202Z,952.49
2018-04-23T07:26:04.202Z,952.44
2018-04-23T07:27:04.204Z,952.42
2018-04-23T07:28:04.201Z,952.4
2018-04-23T07:29:04.201Z,952.39
2018-04-23T07:30:04.202Z,952.43
2018-04-23T07:31:04.200Z,952.43
2018-04-23T07:32:04.200Z,952.45
2018-04-23T07:33:04.200Z,952.4
2018-04-23T07:34:04.200Z,952.41
2018-04-23T07:35:04.202Z,952.42
2018-04-23T07:36:04.200Z,952.45
2018-04-23T07:37:04.200Z,952.45
2018-04-23T07:38:04.198Z,952.44
2018-04-23T07:39:04.200Z,952.43
2018-04-23T07:40:04.201Z,952.49
2018-04-23T07:41:04.199Z,952.43
2018-04-23T07:42:04.200Z,952.4
2018-04-23T07:43:04.197Z,952.42
2018-04-23T07:44:04.197Z,952.44
2018-04-23T07:45:04.208Z,952.39
2018-04-23T07:46:04.196Z,952.43
2018-04-23T07:47:04.196Z,952.41
2018-04-23T07:48:04.197Z,952.44
2018-04-23T07:49:04.202Z,952.43
2018-04-23T07:50:04.202Z,952.42
2018-04-23T07:51:04.197Z,952.45
2018-04-23T07:52:04.196Z,952.42
2018-04-23T07:53:04.197Z,952.4
2018-04-23T07:54:04.216Z,952.43
2018-04-23T07:55:04.198Z,952.43
2018-04-23T07:56:04.196Z,952.45
2018-04-23T07:57:04.197Z,952.44
2018-04-23T07:58:04.195Z,952.46
2018-04-23T07:59:04.195Z,952.47
2018-04-23T08:00:04.196Z,952.46
2018-04-23T08:01:04.196Z,952.49
2018-04-23T08:02:04.197Z,952.49
2018-04-23T08:03:04.196Z,952.5
2018-04-23T08:04:04.196Z,952.44
2018-04-23T08:05:04.196Z,952.5
2018-04-23T08:06:04.197Z,952.44
2018-04-23T08:07:04.199Z,952.47
2018-04-23T08:08:04.196Z,952.41
2018-04-23T08:09:04.197Z,952.45
2018-04-23T08:10:04.198Z,952.41
2018-04-23T08:11:04.215Z,952.44
2018-04-23T08:12:04.197Z,952.41
2018-04-23T08:13:04.197Z,952.38
2018-04-23T08:14:04.204Z,952.38
2018-04-23T08:15:04.197Z,952.36
2018-04-23T08:16:04.198Z,952.4
2018-04-23T08:17:04.198Z,952.38
2018-04-23T08:18:04.203Z,952.36
2018-04-23T08:19:04.202Z,952.36
2018-04-23T08:20:04.198Z,952.37
2018-04-23T08:21:04.198Z,952.34
2018-04-23T08:22:04.198Z,952.36
2018-04-23T08:23:04.199Z,952.36
2018-04-23T08:24:04.199Z,952.38
2018-04-23T08:25:04.201Z,952.34
2018-04-23T08:26:04.200Z,952.32
2018-04-23T08:27:04.202Z,952.34
2018-04-23T08:28:04.203Z,952.33
2018-04-23T08:29:04.202Z,952.32
2018-04-23T08:30:04.202Z,952.26
2018-04-23T08:31:04.204Z,952.33
2018-04-23T08:32:04.205Z,952.29
2018-04-23T08:33:04.204Z,952.31
2018-04-23T08:34:04.204Z,952.26
2018-04-23T08:35:04.207Z,952.33
2018-04-23T08:36:04.227Z,952.34
2018-04-23T08:37:04.213Z,952.22
2018-04-23T08:38:04.208Z,952.28
2018-04-23T08:39:04.210Z,952.31
2018-04-23T08:40:04.213Z,952.3
2018-04-23T08:41:04.214Z,952.31
2018-04-23T08:42:04.215Z,952.29
2018-04-23T08:43:04.217Z,952.29
2018-04-23T08:44:04.218Z,952.28
2018-04-23T08:45:04.220Z,952.28
2018-04-23T08:46:04.222Z,952.34
2018-04-23T08:47:04.227Z,952.33
2018-04-23T08:48:04.236Z,952.3
2018-04-23T08:49:04.226Z,952.36
2018-04-23T08:50:04.228Z,952.33
2018-04-23T08:51:04.229Z,952.35
2018-04-23T08:52:04.231Z,952.31
2018-04-23T08:53:04.246Z,952.32
2018-04-23T08:54:04.234Z,952.43
2018-04-23T08:55:04.254Z,952.43
2018-04-23T08:56:04.237Z,952.46
2018-04-23T08:57:04.238Z,952.44
2018-04-23T08:58:04.240Z,952.43
2018-04-23T08:59:04.240Z,952.51
2018-04-23T09:00:04.288Z,952.41
2018-04-23T09:01:04.330Z,952.35
2018-04-23T09:02:04.246Z,952.41
2018-04-23T09:03:04.247Z,952.41
2018-04-23T09:04:04.248Z,952.41
2018-04-23T09:05:04.250Z,952.47
2018-04-23T09:06:04.249Z,952.46
2018-04-23T09:07:04.453Z,952.48
2018-04-23T09:08:04.253Z,952.5
2018-04-23T09:09:04.255Z,952.47
2018-04-23T09:10:04.255Z,952.42
2018-04-23T09:11:04.255Z,952.41
2018-04-23T09:12:04.258Z,952.4
2018-04-23T09:13:04.258Z,952.4
2018-04-23T09:14:04.259Z,952.36
2018-04-23T09:15:04.262Z,952.34
2018-04-23T09:16:04.263Z,952.29
2018-04-23T09:17:04.264Z,952.33
2018-04-23T09:18:04.265Z,952.32
2018-04-23T09:19:04.267Z,952.33
2018-04-23T09:20:04.269Z,952.34
2018-04-23T09:21:04.277Z,952.35
2018-04-23T09:22:04.273Z,952.32
2018-04-23T09:23:04.273Z,952.38
2018-04-23T09:24:04.289Z,952.36
2018-04-23T09:25:04.275Z,952.34
2018-04-23T09:26:04.277Z,952.4
2018-04-23T09:27:04.279Z,952.37
2018-04-23T09:28:04.278Z,952.43
2018-04-23T09:29:04.289Z,952.44
2018-04-23T09:30:04.282Z,952.4
2018-04-23T09:31:04.287Z,952.37
2018-04-23T09:32:04.302Z,952.32
2018-04-23T09:33:04.286Z,952.34
2018-04-23T09:34:04.287Z,952.31
2018-04-23T09:35:04.287Z,952.34
2018-04-23T09:36:04.289Z,952.36
2018-04-23T09:37:04.291Z,952.29
2018-04-23T09:38:04.292Z,952.3
2018-04-23T09:39:04.293Z,952.32
2018-04-23T09:40:04.294Z,952.27
2018-04-23T09:41:04.297Z,952.29
2018-04-23T09:42:04.298Z,952.25
2018-04-23T09:43:04.299Z,952.22
2018-04-23T09:44:04.319Z,952.27
2018-04-23T09:45:04.303Z,952.25
2018-04-23T09:46:04.303Z,952.23
2018-04-23T09:47:04.306Z,952.23
2018-04-23T09:48:04.308Z,952.19
2018-04-23T09:49:04.310Z,952.17
2018-04-23T09:50:04.359Z,952.14
2018-04-23T09:51:04.313Z,952.12
2018-04-23T09:52:04.315Z,952.12
2018-04-23T09:53:04.318Z,952.14
2018-04-23T09:54:04.319Z,952.18
2018-04-23T09:55:04.322Z,952.13
2018-04-23T09:56:04.323Z,952.11
2018-04-23T09:57:04.325Z,952.1
2018-04-23T09:58:04.326Z,952.12
2018-04-23T09:59:04.333Z,952.14
2018-04-23T10:00:04.332Z,952.1
2018-04-23T10:01:04.332Z,952.15
2018-04-23T10:02:04.356Z,952.12
2018-04-23T10:03:04.336Z,952.11
2018-04-23T10:04:04.338Z,952.19
2018-04-23T10:05:04.339Z,952.22
2018-04-23T10:06:04.356Z,952.32
2018-04-23T10:07:04.343Z,952.31
2018-04-23T10:08:04.347Z,952.38
2018-04-23T10:09:04.344Z,952.36
2018-04-23T10:10:04.345Z,952.49
2018-04-23T10:11:04.347Z,952.44
2018-04-23T10:12:04.346Z,952.47
2018-04-23T10:13:04.346Z,952.49
2018-04-23T10:14:04.348Z,952.5
2018-04-23T10:15:04.347Z,952.54
2018-04-23T10:16:04.362Z,952.76
2018-04-23T10:17:04.348Z,952.84
2018-04-23T10:18:04.348Z,952.92
2018-04-23T10:19:04.347Z,953.07
2018-04-23T10:20:04.346Z,953.14
2018-04-23T10:21:04.626Z,953.29
2018-04-23T10:22:04.345Z,953.18
2018-04-23T10:23:04.344Z,953.31
2018-04-23T10:24:04.342Z,953.17
2018-04-23T10:25:04.341Z,953.27
2018-04-23T10:26:04.340Z,953.31
2018-04-23T10:27:04.336Z,953.29
2018-04-23T10:28:04.335Z,953.33
2018-04-23T10:29:04.332Z,953.34
2018-04-23T10:30:04.328Z,953.34
2018-04-23T10:31:04.329Z,953.36
2018-04-23T10:32:04.322Z,953.29
2018-04-23T10:33:04.324Z,953.36
2018-04-23T10:34:04.315Z,953.31
2018-04-23T10:35:04.317Z,953.29
2018-04-23T10:36:04.308Z,953.3
2018-04-23T10:37:04.304Z,953.31
2018-04-23T10:38:04.300Z,953.31
2018-04-23T10:39:04.297Z,953.36
2018-04-23T10:40:04.292Z,953.3
2018-04-23T10:41:04.288Z,953.3
2018-04-23T10:42:04.282Z,953.32
2018-04-23T10:43:04.279Z,953.29
2018-04-23T10:44:04.274Z,953.31
2018-04-23T10:45:04.272Z,953.28
2018-04-23T10:46:04.265Z,953.26
2018-04-23T10:47:04.262Z,953.29
2018-04-23T10:48:04.259Z,953.28
2018-04-23T10:49:04.252Z,953.29
2018-04-23T10:50:04.251Z,953.28
2018-04-23T10:51:04.248Z,953.24
2018-04-23T10:52:04.239Z,953.23
2018-04-23T10:53:04.233Z,953.28
2018-04-23T10:54:04.230Z,953.29
2018-04-23T10:55:04.226Z,953.25
2018-04-23T10:56:04.221Z,953.29
2018-04-23T10:57:04.233Z,953.31
2018-04-23T10:58:04.212Z,953.24
2018-04-23T10:59:04.208Z,953.2
2018-04-23T11:00:04.205Z,953.2
2018-04-23T11:01:04.199Z,953.12
2018-04-23T11:02:04.196Z,953.1
2018-04-23T11:03:04.192Z,953.07
2018-04-23T11:04:04.187Z,953
2018-04-23T11:05:04.185Z,952.98
2018-04-23T11:06:04.180Z,952.94
2018-04-23T11:07:04.175Z,952.9
2018-04-23T11:08:04.172Z,952.89
2018-04-23T11:09:04.168Z,952.82
2018-04-23T11:10:04.162Z,952.8
2018-04-23T11:11:04.159Z,952.81
2018-04-23T11:12:04.156Z,952.76
2018-04-23T11:13:04.153Z,952.77
2018-04-23T11:14:04.148Z,952.77
2018-04-23T11:15:04.145Z,952.78
2018-04-23T11:16:04.140Z,952.78
2018-04-23T11:17:04.140Z,952.78
2018-04-23T11:18:04.133Z,952.82
2018-04-23T11:19:04.130Z,952.82
2018-04-23T11:20:04.128Z,952.85
2018-04-23T11:21:04.169Z,952.87
2018-04-23T11:22:04.119Z,952.86
2018-04-23T11:23:04.116Z,952.87
2018-04-23T11:24:04.113Z,952.9
2018-04-23T11:25:04.109Z,952.88
2018-04-23T11:26:04.113Z,952.89
2018-04-23T11:27:04.103Z,952.88
2018-04-23T11:28:04.099Z,952.89
2018-04-23T11:29:04.094Z,952.88
2018-04-23T11:30:04.092Z,952.91
2018-04-23T11:31:04.094Z,952.89
2018-04-23T11:32:04.083Z,952.97
2018-04-23T11:33:04.085Z,952.99
2018-04-23T11:34:04.078Z,953.05
2018-04-23T11:35:04.075Z,953.03
2018-04-23T11:36:04.088Z,953.08
2018-04-23T11:37:04.067Z,953.03
2018-04-23T11:38:04.066Z,953.1
2018-04-23T11:39:04.060Z,953.03
2018-04-23T11:40:04.058Z,953.08
2018-04-23T11:41:04.063Z,953.06
2018-04-23T11:42:04.051Z,953.1
2018-04-23T11:43:04.063Z,953.11
2018-04-23T11:44:04.045Z,953.12
2018-04-23T11:45:04.078Z,953.1
2018-04-23T11:46:04.039Z,953.08
2018-04-23T11:47:04.037Z,953.05
2018-04-23T11:48:04.034Z,953.05
2018-04-23T11:49:04.030Z,953.04
2018-04-23T11:50:04.029Z,953.02
2018-04-23T11:51:04.026Z,952.98
2018-04-23T11:52:04.024Z,953
2018-04-23T11:53:04.047Z,952.98
2018-04-23T11:54:04.018Z,952.97
2018-04-23T11:55:04.015Z,952.99
2018-04-23T11:56:04.013Z,952.98
2018-04-23T11:57:04.012Z,952.94
2018-04-23T11:58:04.009Z,952.92
2018-04-23T11:59:04.006Z,952.87
2018-04-23T12:00:04.008Z,952.88
2018-04-23T12:01:04.002Z,952.89
2018-04-23T12:02:04.000Z,952.89
2018-04-23T12:03:03.998Z,952.89
2018-04-23T12:04:03.996Z,952.83
2018-04-23T12:05:03.993Z,952.83
2018-04-23T12:06:03.990Z,952.91
2018-04-23T12:07:03.989Z,952.87
2018-04-23T12:08:03.988Z,952.89
2018-04-23T12:09:03.985Z,952.86
2018-04-23T12:10:03.985Z,952.84
2018-04-23T12:11:04.001Z,952.89
2018-04-23T12:12:03.981Z,952.86
2018-04-23T12:13:03.978Z,952.84
2018-04-23T12:14:03.978Z,952.81
2018-04-23T12:15:03.976Z,952.88
2018-04-23T12:16:03.993Z,952.88
2018-04-23T12:17:03.972Z,952.87
2018-04-23T12:18:03.971Z,952.89
2018-04-23T12:19:03.973Z,952.82
2018-04-23T12:20:03.967Z,952.87
2018-04-23T12:21:03.965Z,952.87
2018-04-23T12:22:03.963Z,952.89
2018-04-23T12:23:03.960Z,952.88
2018-04-23T12:24:03.959Z,952.86
2018-04-23T12:25:03.958Z,952.84
2018-04-23T12:26:03.956Z,952.83
2018-04-23T12:27:03.954Z,952.81
2018-04-23T12:28:03.953Z,952.8
2018-04-23T12:29:03.957Z,952.77
2018-04-23T12:30:03.951Z,952.74
2018-04-23T12:31:03.947Z,952.8